sensor_id;sensor_type;location;lat;lon;timestamp;pressure;altitude;pressure_sealevel;temperature;humidity
37132;BME280;23035;50.032;21.978;2023-06-14T00:01:16;66590.31;;;13.47;100.00
37132;BME280;23035;50.032;21.978;2023-06-14T00:06:22;66566.19;;;13.27;100.00
37132;BME280;23035;50.032;21.978;2023-06-14T00:11:28;66550.13;;;13.14;100.00
37132;BME280;23035;50.032;21.978;2023-06-14T00:16:34;66586.06;;;13.45;100.00
37132;BME280;23035;50.032;21.978;2023-06-14T00:21:39;66600.06;;;13.59;100.00
37132;BME280;23035;50.032;21.978;2023-06-14T00:26:44;66604.97;;;13.66;100.00
37132;BME280;23035;50.032;21.978;2023-06-14T00:31:50;66565.09;;;13.26;100.00
37132;BME280;23035;50.032;21.978;2023-06-14T00:36:54;66573.16;;;13.33;100.00
37132;BME280;23035;50.032;21.978;2023-06-14T00:41:58;66561.44;;;13.25;100.00
37132;BME280;23035;50.032;21.978;2023-06-14T00:47:04;66527.94;;;12.88;100.00
37132;BME280;23035;50.032;21.978;2023-06-14T00:52:08;66547.44;;;13.11;100.00
37132;BME280;23035;50.032;21.978;2023-06-14T00:57:15;66511.81;;;12.73;100.00
37132;BME280;23035;50.032;21.978;2023-06-14T01:02:23;66536.09;;;12.98;100.00
37132;BME280;23035;50.032;21.978;2023-06-14T01:07:34;66536.63;;;12.99;100.00
37132;BME280;23035;50.032;21.978;2023-06-14T01:12:50;66558.03;;;13.16;100.00
37132;BME280;23035;50.032;21.978;2023-06-14T01:17:58;66556.59;;;13.20;100.00
37132;BME280;23035;50.032;21.978;2023-06-14T01:23:08;66549.44;;;13.08;100.00
37132;BME280;23035;50.032;21.978;2023-06-14T01:28:13;66565.66;;;13.26;100.00
37132;BME280;23035;50.032;21.978;2023-06-14T01:33:19;66593.66;;;13.55;100.00
37132;BME280;23035;50.032;21.978;2023-06-14T01:38:26;66609.75;;;13.68;100.00
37132;BME280;23035;50.032;21.978;2023-06-14T01:43:34;66550.06;;;13.11;100.00
37132;BME280;23035;50.032;21.978;2023-06-14T01:48:40;66551.66;;;13.13;100.00
37132;BME280;23035;50.032;21.978;2023-06-14T01:53:46;66542.22;;;13.11;100.00
37132;BME280;23035;50.032;21.978;2023-06-14T01:58:51;66542.59;;;13.07;100.00
37132;BME280;23035;50.032;21.978;2023-06-14T02:03:56;66536.00;;;12.96;100.00
37132;BME280;23035;50.032;21.978;2023-06-14T02:09:02;66574.25;;;13.34;100.00
37132;BME280;23035;50.032;21.978;2023-06-14T02:14:06;66536.78;;;13.04;100.00
37132;BME280;23035;50.032;21.978;2023-06-14T02:19:14;66514.03;;;12.77;100.00
37132;BME280;23035;50.032;21.978;2023-06-14T02:24:20;66508.69;;;12.72;100.00
37132;BME280;23035;50.032;21.978;2023-06-14T02:29:26;66482.88;;;12.48;100.00
37132;BME280;23035;50.032;21.978;2023-06-14T02:34:30;66509.28;;;12.75;100.00
37132;BME280;23035;50.032;21.978;2023-06-14T02:39:37;66488.34;;;12.55;100.00
37132;BME280;23035;50.032;21.978;2023-06-14T02:44:41;66505.53;;;12.72;100.00
37132;BME280;23035;50.032;21.978;2023-06-14T02:49:46;66517.44;;;12.85;100.00
37132;BME280;23035;50.032;21.978;2023-06-14T02:54:51;66551.91;;;13.20;100.00
37132;BME280;23035;50.032;21.978;2023-06-14T02:59:57;66522.63;;;12.85;100.00
37132;BME280;23035;50.032;21.978;2023-06-14T03:05:01;66506.06;;;12.72;100.00
37132;BME280;23035;50.032;21.978;2023-06-14T03:10:09;66498.63;;;12.68;100.00
37132;BME280;23035;50.032;21.978;2023-06-14T03:15:19;66534.09;;;13.01;100.00
37132;BME280;23035;50.032;21.978;2023-06-14T03:20:27;66513.97;;;12.75;100.00
37132;BME280;23035;50.032;21.978;2023-06-14T03:25:34;66594.66;;;13.54;100.00
37132;BME280;23035;50.032;21.978;2023-06-14T03:30:42;66605.34;;;13.61;100.00
37132;BME280;23035;50.032;21.978;2023-06-14T03:35:46;66644.59;;;13.98;100.00
37132;BME280;23035;50.032;21.978;2023-06-14T03:40:52;66547.91;;;13.09;100.00
37132;BME280;23035;50.032;21.978;2023-06-14T03:45:57;66569.50;;;13.32;100.00
37132;BME280;23035;50.032;21.978;2023-06-14T03:51:02;66599.97;;;13.56;100.00
37132;BME280;23035;50.032;21.978;2023-06-14T03:56:08;66615.63;;;13.73;100.00
37132;BME280;23035;50.032;21.978;2023-06-14T04:01:17;66555.94;;;13.17;100.00
37132;BME280;23035;50.032;21.978;2023-06-14T04:06:23;66599.06;;;13.60;100.00
37132;BME280;23035;50.032;21.978;2023-06-14T04:11:36;66630.16;;;13.87;100.00
37132;BME280;23035;50.032;21.978;2023-06-14T04:16:40;66643.69;;;14.02;100.00
37132;BME280;23035;50.032;21.978;2023-06-14T04:21:44;66606.66;;;13.70;100.00
37132;BME280;23035;50.032;21.978;2023-06-14T04:26:52;66606.66;;;13.70;100.00
37132;BME280;23035;50.032;21.978;2023-06-14T04:31:56;66607.19;;;13.70;100.00
37132;BME280;23035;50.032;21.978;2023-06-14T04:37:04;66593.59;;;13.53;100.00
37132;BME280;23035;50.032;21.978;2023-06-14T04:42:14;66586.06;;;13.45;100.00
37132;BME280;23035;50.032;21.978;2023-06-14T04:47:19;66617.78;;;13.75;100.00
37132;BME280;23035;50.032;21.978;2023-06-14T04:52:24;66637.22;;;13.96;100.00
37132;BME280;23035;50.032;21.978;2023-06-14T04:57:32;66631.78;;;13.89;100.00
37132;BME280;23035;50.032;21.978;2023-06-14T05:02:37;66663.03;;;14.21;100.00
37132;BME280;23035;50.032;21.978;2023-06-14T05:07:44;66608.28;;;13.71;100.00
37132;BME280;23035;50.032;21.978;2023-06-14T05:12:51;66644.13;;;14.00;100.00
37132;BME280;23035;50.032;21.978;2023-06-14T05:17:56;66653.91;;;14.12;100.00
37132;BME280;23035;50.032;21.978;2023-06-14T05:23:00;66574.41;;;13.39;100.00
37132;BME280;23035;50.032;21.978;2023-06-14T05:28:07;66671.72;;;14.31;100.00
37132;BME280;23035;50.032;21.978;2023-06-14T05:33:11;66648.00;;;14.06;100.00
37132;BME280;23035;50.032;21.978;2023-06-14T05:38:15;66692.66;;;14.49;100.00
37132;BME280;23035;50.032;21.978;2023-06-14T05:43:21;66668.97;;;14.26;100.00
37132;BME280;23035;50.032;21.978;2023-06-14T05:48:25;66676.47;;;14.33;100.00
37132;BME280;23035;50.032;21.978;2023-06-14T05:53:30;66668.88;;;14.24;100.00
37132;BME280;23035;50.032;21.978;2023-06-14T05:58:35;66702.16;;;14.53;100.00
37132;BME280;23035;50.032;21.978;2023-06-14T06:03:39;66678.56;;;14.33;100.00
37132;BME280;23035;50.032;21.978;2023-06-14T06:08:44;66624.78;;;13.82;100.00
37132;BME280;23035;50.032;21.978;2023-06-14T06:13:50;66672.19;;;14.29;100.00
37132;BME280;23035;50.032;21.978;2023-06-14T06:18:54;66647.53;;;14.09;100.00
37132;BME280;23035;50.032;21.978;2023-06-14T06:23:58;66621.72;;;13.84;100.00
37132;BME280;23035;50.032;21.978;2023-06-14T06:29:07;66616.19;;;13.74;100.00
37132;BME280;23035;50.032;21.978;2023-06-14T06:34:12;66696.94;;;14.53;100.00
37132;BME280;23035;50.032;21.978;2023-06-14T06:39:17;66660.44;;;14.21;100.00
37132;BME280;23035;50.032;21.978;2023-06-14T06:44:23;66703.94;;;14.59;100.00
37132;BME280;23035;50.032;21.978;2023-06-14T06:49:27;66735.75;;;14.92;100.00
37132;BME280;23035;50.032;21.978;2023-06-14T06:54:32;66806.19;;;15.56;100.00
37132;BME280;23035;50.032;21.978;2023-06-14T06:59:37;66833.06;;;15.79;100.00
37132;BME280;23035;50.032;21.978;2023-06-14T07:04:42;66856.81;;;16.04;100.00
37132;BME280;23035;50.032;21.978;2023-06-14T07:09:46;66925.09;;;16.63;100.00
37132;BME280;23035;50.032;21.978;2023-06-14T07:14:52;66880.53;;;16.26;100.00
37132;BME280;23035;50.032;21.978;2023-06-14T07:19:55;66876.66;;;16.20;100.00
37132;BME280;23035;50.032;21.978;2023-06-14T07:25:01;66795.50;;;15.48;100.00
37132;BME280;23035;50.032;21.978;2023-06-14T07:30:08;66767.75;;;15.12;100.00
37132;BME280;23035;50.032;21.978;2023-06-14T07:35:12;66760.34;;;15.10;100.00
37132;BME280;23035;50.032;21.978;2023-06-14T07:40:17;66682.41;;;14.39;100.00
37132;BME280;23035;50.032;21.978;2023-06-14T07:45:23;66670.94;;;14.23;100.00
37132;BME280;23035;50.032;21.978;2023-06-14T07:50:27;66691.03;;;14.47;100.00
37132;BME280;23035;50.032;21.978;2023-06-14T07:55:32;66647.34;;;14.03;100.00
37132;BME280;23035;50.032;21.978;2023-06-14T08:00:56;66702.78;;;14.56;100.00
37132;BME280;23035;50.032;21.978;2023-06-14T08:06:00;66749.53;;;14.98;100.00
37132;BME280;23035;50.032;21.978;2023-06-14T08:11:05;66727.59;;;14.82;100.00
37132;BME280;23035;50.032;21.978;2023-06-14T08:16:11;66727.13;;;14.84;100.00
37132;BME280;23035;50.032;21.978;2023-06-14T08:21:15;66650.13;;;14.09;100.00
37132;BME280;23035;50.032;21.978;2023-06-14T08:26:19;66642.06;;;14.01;100.00
37132;BME280;23035;50.032;21.978;2023-06-14T08:31:25;66693.78;;;14.52;100.00
37132;BME280;23035;50.032;21.978;2023-06-14T08:36:30;66647.34;;;14.03;100.00
37132;BME280;23035;50.032;21.978;2023-06-14T08:41:35;66641.00;;;14.00;100.00
37132;BME280;23035;50.032;21.978;2023-06-14T08:46:41;66665.72;;;14.23;100.00
37132;BME280;23035;50.032;21.978;2023-06-14T08:51:46;66651.22;;;14.10;100.00
37132;BME280;23035;50.032;21.978;2023-06-14T08:56:54;66687.78;;;14.44;100.00
37132;BME280;23035;50.032;21.978;2023-06-14T09:02:01;66641.00;;;14.00;100.00
37132;BME280;23035;50.032;21.978;2023-06-14T09:07:15;66672.13;;;14.27;100.00
37132;BME280;23035;50.032;21.978;2023-06-14T09:12:19;66786.75;;;15.35;100.00
37132;BME280;23035;50.032;21.978;2023-06-14T09:17:25;66907.00;;;16.54;100.00
37132;BME280;23035;50.032;21.978;2023-06-14T09:22:30;67045.00;;;17.84;100.00
37132;BME280;23035;50.032;21.978;2023-06-14T09:27:34;66994.09;;;17.29;100.00
37132;BME280;23035;50.032;21.978;2023-06-14T09:32:44;66950.09;;;16.95;100.00
37132;BME280;23035;50.032;21.978;2023-06-14T09:37:48;67053.09;;;17.92;100.00
37132;BME280;23035;50.032;21.978;2023-06-14T09:42:53;67151.81;;;18.85;100.00
37132;BME280;23035;50.032;21.978;2023-06-14T09:48:00;67148.00;;;18.79;100.00
37132;BME280;23035;50.032;21.978;2023-06-14T09:53:11;66989.38;;;17.29;100.00
37132;BME280;23035;50.032;21.978;2023-06-14T09:58:16;66958.03;;;16.97;100.00
37132;BME280;23035;50.032;21.978;2023-06-14T10:03:28;67039.53;;;17.76;100.00
37132;BME280;23035;50.032;21.978;2023-06-14T10:08:53;67198.63;;;19.24;100.00
37132;BME280;23035;50.032;21.978;2023-06-14T10:13:59;67263.44;;;19.85;100.00
37132;BME280;23035;50.032;21.978;2023-06-14T10:19:10;67289.44;;;20.12;100.00
37132;BME280;23035;50.032;21.978;2023-06-14T10:24:16;67198.63;;;19.24;100.00
37132;BME280;23035;50.032;21.978;2023-06-14T10:29:22;67094.00;;;18.28;100.00
37132;BME280;23035;50.032;21.978;2023-06-14T10:34:28;67161.00;;;18.94;100.00
37132;BME280;23035;50.032;21.978;2023-06-14T10:39:38;67110.19;;;18.43;100.00
37132;BME280;23035;50.032;21.978;2023-06-14T10:44:45;67066.44;;;17.99;100.00
37132;BME280;23035;50.032;21.978;2023-06-14T10:49:52;67187.44;;;19.18;100.00
37132;BME280;23035;50.032;21.978;2023-06-14T10:55:06;67214.91;;;19.42;100.00
37132;BME280;23035;50.032;21.978;2023-06-14T11:00:15;67222.47;;;19.49;100.00
37132;BME280;23035;50.032;21.978;2023-06-14T11:05:24;67242.53;;;19.70;100.00
37132;BME280;23035;50.032;21.978;2023-06-14T11:10:36;67315.84;;;20.34;100.00
37132;BME280;23035;50.032;21.978;2023-06-14T11:15:44;67503.00;;;22.13;96.53
37132;BME280;23035;50.032;21.978;2023-06-14T11:20:50;67481.94;;;21.96;95.56
37132;BME280;23035;50.032;21.978;2023-06-14T11:25:55;67431.06;;;21.45;96.73
37132;BME280;23035;50.032;21.978;2023-06-14T11:31:03;67409.41;;;21.25;99.10
37132;BME280;23035;50.032;21.978;2023-06-14T11:36:09;67446.25;;;21.62;98.01
37132;BME280;23035;50.032;21.978;2023-06-14T11:41:13;67460.25;;;21.73;93.74
37132;BME280;23035;50.032;21.978;2023-06-14T11:46:17;67408.25;;;21.22;97.09
37132;BME280;23035;50.032;21.978;2023-06-14T11:51:28;67421.81;;;21.34;96.47
37132;BME280;23035;50.032;21.978;2023-06-14T11:56:32;67479.78;;;21.94;88.81
37132;BME280;23035;50.032;21.978;2023-06-14T12:01:37;67358.00;;;20.74;95.10
37132;BME280;23035;50.032;21.978;2023-06-14T12:06:44;67365.69;;;20.86;100.00
37132;BME280;23035;50.032;21.978;2023-06-14T12:11:48;67147.03;;;18.83;100.00
37132;BME280;23035;50.032;21.978;2023-06-14T12:17:04;66991.00;;;17.31;100.00
37132;BME280;23035;50.032;21.978;2023-06-14T12:22:13;67081.53;;;18.14;100.00
37132;BME280;23035;50.032;21.978;2023-06-14T12:27:21;67137.25;;;18.71;100.00
37132;BME280;23035;50.032;21.978;2023-06-14T12:32:27;67228.81;;;19.50;100.00
37132;BME280;23035;50.032;21.978;2023-06-14T12:37:33;67197.63;;;19.26;100.00
37132;BME280;23035;50.032;21.978;2023-06-14T12:42:38;67384.53;;;21.02;100.00
37132;BME280;23035;50.032;21.978;2023-06-14T12:47:42;67605.72;;;23.07;95.29
37132;BME280;23035;50.032;21.978;2023-06-14T12:52:48;67807.81;;;25.00;82.33
37132;BME280;23035;50.032;21.978;2023-06-14T12:57:52;67660.50;;;23.61;84.94
37132;BME280;23035;50.032;21.978;2023-06-14T13:02:57;67884.31;;;25.74;74.70
37132;BME280;23035;50.032;21.978;2023-06-14T13:08:04;67967.25;;;26.49;60.41
37132;BME280;23035;50.032;21.978;2023-06-14T13:13:08;67629.06;;;23.32;72.06
37132;BME280;23035;50.032;21.978;2023-06-14T13:18:15;67674.06;;;23.77;77.46
37132;BME280;23035;50.032;21.978;2023-06-14T13:23:21;67749.81;;;24.43;70.84
37132;BME280;23035;50.032;21.978;2023-06-14T13:28:25;67812.81;;;25.09;73.42
37132;BME280;23035;50.032;21.978;2023-06-14T13:33:30;67806.31;;;25.03;66.78
37132;BME280;23035;50.032;21.978;2023-06-14T13:38:37;67599.31;;;23.04;74.22
37132;BME280;23035;50.032;21.978;2023-06-14T13:43:41;67466.72;;;21.79;82.84
37132;BME280;23035;50.032;21.978;2023-06-14T13:48:45;67533.22;;;22.39;75.68
37132;BME280;23035;50.032;21.978;2023-06-14T13:53:52;67488.97;;;22.02;83.76
37132;BME280;23035;50.032;21.978;2023-06-14T13:58:58;67550.63;;;22.60;79.24
37132;BME280;23035;50.032;21.978;2023-06-14T14:04:03;67833.91;;;25.27;67.58
37132;BME280;23035;50.032;21.978;2023-06-14T14:09:09;68003.13;;;26.85;60.36
37132;BME280;23035;50.032;21.978;2023-06-14T14:14:13;67801.91;;;24.97;67.70
37132;BME280;23035;50.032;21.978;2023-06-14T14:19:17;67748.22;;;24.44;68.95
37132;BME280;23035;50.032;21.978;2023-06-14T14:24:23;67739.06;;;24.38;69.40
37132;BME280;23035;50.032;21.978;2023-06-14T14:29:28;67694.06;;;23.93;74.22
37132;BME280;23035;50.032;21.978;2023-06-14T14:34:32;67670.72;;;23.68;73.52
37132;BME280;23035;50.032;21.978;2023-06-14T14:39:38;67704.88;;;24.03;71.33
37132;BME280;23035;50.032;21.978;2023-06-14T14:44:42;67589.56;;;22.95;72.00
37132;BME280;23035;50.032;21.978;2023-06-14T14:49:47;67700.59;;;24.01;70.54
37132;BME280;23035;50.032;21.978;2023-06-14T14:54:52;67837.16;;;25.30;62.84
37132;BME280;23035;50.032;21.978;2023-06-14T14:59:57;67985.75;;;26.69;55.38
37132;BME280;23035;50.032;21.978;2023-06-14T15:05:01;67928.22;;;26.15;59.77
37132;BME280;23035;50.032;21.978;2023-06-14T15:10:08;67805.06;;;24.95;62.22
37132;BME280;23035;50.032;21.978;2023-06-14T15:15:12;67714.13;;;24.14;63.47
37132;BME280;23035;50.032;21.978;2023-06-14T15:20:16;67528.88;;;22.35;75.81
37132;BME280;23035;50.032;21.978;2023-06-14T15:25:22;67408.25;;;21.22;88.58
37132;BME280;23035;50.032;21.978;2023-06-14T15:30:26;67380.16;;;20.95;93.84
37132;BME280;23035;50.032;21.978;2023-06-14T15:35:31;67407.88;;;21.26;90.79
37132;BME280;23035;50.032;21.978;2023-06-14T15:40:36;67335.44;;;20.58;97.12
37132;BME280;23035;50.032;21.978;2023-06-14T15:45:40;67323.88;;;20.40;94.62
37132;BME280;23035;50.032;21.978;2023-06-14T15:50:46;67262.91;;;19.85;100.00
37132;BME280;23035;50.032;21.978;2023-06-14T15:55:51;67354.22;;;20.71;97.28
37132;BME280;23035;50.032;21.978;2023-06-14T16:00:56;67276.59;;;20.05;100.00
37132;BME280;23035;50.032;21.978;2023-06-14T16:06:01;67361.38;;;20.82;96.02
37132;BME280;23035;50.032;21.978;2023-06-14T16:11:07;67417.59;;;21.35;94.35
37132;BME280;23035;50.032;21.978;2023-06-14T16:16:11;67465.66;;;21.78;90.53
37132;BME280;23035;50.032;21.978;2023-06-14T16:21:16;67476.94;;;21.86;87.32
37132;BME280;23035;50.032;21.978;2023-06-14T16:26:21;67399.06;;;21.13;92.13
37132;BME280;23035;50.032;21.978;2023-06-14T16:31:26;67432.63;;;21.44;90.65
37132;BME280;23035;50.032;21.978;2023-06-14T16:36:30;67362.88;;;20.79;97.69
37132;BME280;23035;50.032;21.978;2023-06-14T16:41:36;67355.84;;;20.72;98.28
37132;BME280;23035;50.032;21.978;2023-06-14T16:46:40;67324.03;;;20.45;100.00
37132;BME280;23035;50.032;21.978;2023-06-14T16:51:45;67338.56;;;20.56;99.63
37132;BME280;23035;50.032;21.978;2023-06-14T16:56:50;67363.41;;;20.79;100.00
37132;BME280;23035;50.032;21.978;2023-06-14T17:02:00;67366.66;;;20.82;100.00
37132;BME280;23035;50.032;21.978;2023-06-14T17:07:08;67196.47;;;19.22;100.00
37132;BME280;23035;50.032;21.978;2023-06-14T17:12:13;67282.34;;;20.03;100.00
37132;BME280;23035;50.032;21.978;2023-06-14T17:17:17;67255.34;;;19.77;100.00
37132;BME280;23035;50.032;21.978;2023-06-14T17:22:22;67154.88;;;18.80;100.00
37132;BME280;23035;50.032;21.978;2023-06-14T17:27:27;67157.69;;;18.88;100.00
37132;BME280;23035;50.032;21.978;2023-06-14T17:32:32;67117.28;;;18.52;100.00
37132;BME280;23035;50.032;21.978;2023-06-14T17:37:36;67180.97;;;19.12;100.00
37132;BME280;23035;50.032;21.978;2023-06-14T17:42:41;66968.88;;;17.10;100.00
37132;BME280;23035;50.032;21.978;2023-06-14T17:47:45;66910.09;;;16.52;100.00
37132;BME280;23035;50.032;21.978;2023-06-14T17:52:52;66872.38;;;16.16;100.00
37132;BME280;23035;50.032;21.978;2023-06-14T17:57:58;66978.53;;;17.16;100.00
37132;BME280;23035;50.032;21.978;2023-06-14T18:03:02;66961.81;;;17.01;100.00
37132;BME280;23035;50.032;21.978;2023-06-14T18:08:08;66916.53;;;16.58;100.00
37132;BME280;23035;50.032;21.978;2023-06-14T18:13:14;66778.25;;;15.32;100.00
37132;BME280;23035;50.032;21.978;2023-06-14T18:18:18;66782.50;;;15.34;100.00
37132;BME280;23035;50.032;21.978;2023-06-14T18:23:26;66755.13;;;15.10;100.00
37132;BME280;23035;50.032;21.978;2023-06-14T18:28:32;66817.97;;;15.65;100.00
37132;BME280;23035;50.032;21.978;2023-06-14T18:33:37;66860.44;;;16.02;100.00
37132;BME280;23035;50.032;21.978;2023-06-14T18:38:41;66895.00;;;16.38;100.00
37132;BME280;23035;50.032;21.978;2023-06-14T18:43:47;66876.22;;;16.22;100.00
37132;BME280;23035;50.032;21.978;2023-06-14T18:48:54;66885.91;;;16.31;100.00
37132;BME280;23035;50.032;21.978;2023-06-14T18:53:59;66866.97;;;16.11;100.00
37132;BME280;23035;50.032;21.978;2023-06-14T18:59:07;66993.06;;;17.30;100.00
37132;BME280;23035;50.032;21.978;2023-06-14T19:04:13;66916.00;;;16.57;100.00
37132;BME280;23035;50.032;21.978;2023-06-14T19:09:18;66819.06;;;15.66;100.00
37132;BME280;23035;50.032;21.978;2023-06-14T19:14:24;66816.44;;;15.66;100.00
37132;BME280;23035;50.032;21.978;2023-06-14T19:19:29;66790.50;;;15.39;100.00
37132;BME280;23035;50.032;21.978;2023-06-14T19:24:34;66774.97;;;15.27;100.00
37132;BME280;23035;50.032;21.978;2023-06-14T19:29:41;66733.59;;;14.90;100.00
37132;BME280;23035;50.032;21.978;2023-06-14T19:34:46;66603.88;;;13.65;100.00
37132;BME280;23035;50.032;21.978;2023-06-14T19:39:51;66717.31;;;14.70;100.00
37132;BME280;23035;50.032;21.978;2023-06-14T19:44:57;66659.28;;;14.17;100.00
37132;BME280;23035;50.032;21.978;2023-06-14T19:50:02;66714.16;;;14.69;100.00
37132;BME280;23035;50.032;21.978;2023-06-14T19:55:10;66551.72;;;13.15;100.00
37132;BME280;23035;50.032;21.978;2023-06-14T20:00:17;66562.44;;;13.23;100.00
37132;BME280;23035;50.032;21.978;2023-06-14T20:05:21;66544.13;;;13.06;100.00
37132;BME280;23035;50.032;21.978;2023-06-14T20:10:27;66644.69;;;14.01;100.00
37132;BME280;23035;50.032;21.978;2023-06-14T20:15:33;66754.44;;;15.05;100.00
37132;BME280;23035;50.032;21.978;2023-06-14T20:20:38;66779.34;;;15.33;100.00
37132;BME280;23035;50.032;21.978;2023-06-14T20:25:43;66816.97;;;15.66;100.00
37132;BME280;23035;50.032;21.978;2023-06-14T20:30:52;66763.59;;;15.13;100.00
37132;BME280;23035;50.032;21.978;2023-06-14T20:35:57;66674.72;;;14.27;100.00
37132;BME280;23035;50.032;21.978;2023-06-14T20:41:01;66590.84;;;13.47;100.00
37132;BME280;23035;50.032;21.978;2023-06-14T20:46:07;66635.59;;;13.95;100.00
37132;BME280;23035;50.032;21.978;2023-06-14T20:51:12;66653.22;;;14.06;100.00
37132;BME280;23035;50.032;21.978;2023-06-14T20:56:17;66579.16;;;13.41;100.00
37132;BME280;23035;50.032;21.978;2023-06-14T21:01:26;66643.06;;;13.99;100.00
37132;BME280;23035;50.032;21.978;2023-06-14T21:06:38;66708.22;;;14.63;100.00
37132;BME280;23035;50.032;21.978;2023-06-14T21:11:42;66716.25;;;14.69;100.00
37132;BME280;23035;50.032;21.978;2023-06-14T21:16:48;66713.00;;;14.66;100.00
37132;BME280;23035;50.032;21.978;2023-06-14T21:21:53;66755.00;;;15.05;100.00
37132;BME280;23035;50.032;21.978;2023-06-14T21:26:57;66674.41;;;14.34;100.00
37132;BME280;23035;50.032;21.978;2023-06-14T21:32:04;66718.94;;;14.71;100.00
37132;BME280;23035;50.032;21.978;2023-06-14T21:37:08;66666.72;;;14.22;100.00
37132;BME280;23035;50.032;21.978;2023-06-14T21:42:14;66623.31;;;13.86;100.00
37132;BME280;23035;50.032;21.978;2023-06-14T21:47:19;66696.88;;;14.50;100.00
37132;BME280;23035;50.032;21.978;2023-06-14T21:52:23;66670.56;;;14.28;100.00
37132;BME280;23035;50.032;21.978;2023-06-14T21:57:27;66568.41;;;13.31;100.00
37132;BME280;23035;50.032;21.978;2023-06-14T22:02:33;66559.75;;;13.20;100.00
37132;BME280;23035;50.032;21.978;2023-06-14T22:07:37;66638.91;;;14.00;100.00
37132;BME280;23035;50.032;21.978;2023-06-14T22:12:42;66679.19;;;14.36;100.00
37132;BME280;23035;50.032;21.978;2023-06-14T22:17:48;66643.69;;;14.02;100.00
37132;BME280;23035;50.032;21.978;2023-06-14T22:22:54;66659.34;;;14.20;100.00
37132;BME280;23035;50.032;21.978;2023-06-14T22:28:00;66666.41;;;14.29;100.00
37132;BME280;23035;50.032;21.978;2023-06-14T22:33:06;66674.78;;;14.29;100.00
37132;BME280;23035;50.032;21.978;2023-06-14T22:38:10;66589.31;;;13.48;100.00
37132;BME280;23035;50.032;21.978;2023-06-14T22:43:14;66544.75;;;13.09;100.00
37132;BME280;23035;50.032;21.978;2023-06-14T22:48:20;66558.75;;;13.22;100.00
37132;BME280;23035;50.032;21.978;2023-06-14T22:53:25;66478.75;;;12.49;100.00
37132;BME280;23035;50.032;21.978;2023-06-14T22:58:31;66507.59;;;12.71;100.00
37132;BME280;23035;50.032;21.978;2023-06-14T23:03:37;66474.38;;;12.42;100.00
37132;BME280;23035;50.032;21.978;2023-06-14T23:08:42;66473.84;;;12.42;100.00
37132;BME280;23035;50.032;21.978;2023-06-14T23:13:47;66454.97;;;12.21;100.00
37132;BME280;23035;50.032;21.978;2023-06-14T23:18:52;66478.66;;;12.46;100.00
37132;BME280;23035;50.032;21.978;2023-06-14T23:23:57;66493.63;;;12.58;100.00
37132;BME280;23035;50.032;21.978;2023-06-14T23:29:01;66560.81;;;13.22;100.00
37132;BME280;23035;50.032;21.978;2023-06-14T23:34:08;66544.59;;;13.04;100.00
37132;BME280;23035;50.032;21.978;2023-06-14T23:39:12;66608.56;;;13.64;100.00
37132;BME280;23035;50.032;21.978;2023-06-14T23:44:17;66530.16;;;12.92;100.00
37132;BME280;23035;50.032;21.978;2023-06-14T23:49:25;66460.97;;;12.29;100.00
37132;BME280;23035;50.032;21.978;2023-06-14T23:54:29;66452.81;;;12.19;100.00
37132;BME280;23035;50.032;21.978;2023-06-14T23:59:35;66356.78;;;11.31;100.00
